Time;durP1;ratioP1;P1;durP2;ratioP2;P2;SDS_P1;SDS_P2;PMS_P1;PMS_P2;Temp;Humidity;BMP_temperature;BMP_pressure;BME280_temperature;BME280_humidity;BME280_pressure;Samples;Min_cycle;Max_cycle;Signal;HPM_P1;HPM_P2
2022/04/09 00:02:04;;;;;;;11.90;4.03;;;3.50;1.00;;;;;;5013497;28;20569;-49
2022/04/09 00:04:30;;;;;;;5.73;2.10;;;3.60;1.00;;;;;;5028800;28;20707;-49
2022/04/09 00:06:55;;;;;;;10.07;2.33;;;3.50;1.00;;;;;;5028933;28;20226;-49
2022/04/09 00:09:21;;;;;;;5.07;2.27;;;3.50;99.90;;;;;;5029160;28;20226;-49
2022/04/09 00:11:46;;;;;;;9.57;1.73;;;3.40;99.90;;;;;;5029226;28;20943;-52
2022/04/09 00:14:12;;;;;;;6.33;1.80;;;3.40;99.90;;;;;;5038935;28;20254;-49
2022/04/09 00:16:41;;;;;;;10.10;2.13;;;3.30;99.90;;;;;;5030759;28;20186;-49
2022/04/09 00:19:07;;;;;;;10.87;1.90;;;3.30;99.90;;;;;;5028910;28;20240;-49
2022/04/09 00:21:32;;;;;;;11.27;2.10;;;3.20;99.90;;;;;;5012097;28;20426;-48
2022/04/09 00:23:58;;;;;;;5.63;1.80;;;3.20;99.90;;;;;;5001720;28;20439;-49
2022/04/09 00:26:24;;;;;;;5.53;1.50;;;3.10;99.90;;;;;;5024026;28;20671;-49
2022/04/09 00:28:49;;;;;;;5.47;1.77;;;3.10;99.90;;;;;;5030328;28;20198;-49
2022/04/09 00:31:15;;;;;;;3.40;1.80;;;3.10;99.90;;;;;;5030448;28;20253;-48
2022/04/09 00:33:40;;;;;;;7.30;1.70;;;3.10;99.90;;;;;;5030614;28;20242;-49
2022/04/09 00:36:06;;;;;;;5.50;1.57;;;3.10;99.90;;;;;;5030564;28;20191;-49
2022/04/09 00:38:31;;;;;;;4.77;1.57;;;3.10;99.90;;;;;;5030421;28;20270;-53
2022/04/09 00:40:57;;;;;;;4.93;1.87;;;3.10;99.90;;;;;;5030713;28;20176;-55
2022/04/09 00:43:23;;;;;;;1.80;1.50;;;3.10;99.90;;;;;;5024456;28;20195;-52
2022/04/09 00:45:49;;;;;;;9.97;2.10;;;3.10;99.90;;;;;;5030796;28;20239;-53
2022/04/09 00:48:16;;;;;;;8.97;2.33;;;3.00;99.90;;;;;;5031303;28;20199;-51
2022/04/09 00:50:41;;;;;;;7.13;2.23;;;3.00;99.90;;;;;;5031273;28;20437;-54
2022/04/09 00:53:10;;;;;;;7.23;2.13;;;2.90;99.90;;;;;;5033377;28;20535;-53
2022/04/09 00:58:21;;;;;;;6.17;2.03;;;2.90;99.90;;;;;;5030995;28;20433;-52
2022/04/09 01:00:47;;;;;;;3.23;1.67;;;2.90;99.90;;;;;;5031710;28;20418;-53
2022/04/09 01:03:18;;;;;;;12.77;2.50;;;2.90;99.90;;;;;;5013511;28;20199;-54
2022/04/09 01:05:44;;;;;;;9.57;3.60;;;2.80;99.90;;;;;;5031246;28;20436;-54
2022/04/09 01:08:10;;;;;;;9.00;2.63;;;2.90;1.00;;;;;;5023904;28;20436;-53
2022/04/09 01:10:37;;;;;;;7.00;3.10;;;3.00;1.00;;;;;;5015963;28;20487;-53
2022/04/09 01:13:03;;;;;;;10.33;2.60;;;3.00;1.00;;;;;;5031185;28;20703;-53
2022/04/09 01:15:29;;;;;;;6.13;2.50;;;3.10;1.00;;;;;;5031339;28;20422;-53
2022/04/09 01:17:55;;;;;;;6.10;2.60;;;3.10;1.00;;;;;;5027639;28;20413;-53
2022/04/09 01:20:22;;;;;;;9.50;2.50;;;3.10;1.00;;;;;;5028233;28;20183;-53
2022/04/09 01:22:49;;;;;;;5.97;2.40;;;3.00;1.00;;;;;;5035409;28;20906;-54
2022/04/09 01:25:15;;;;;;;11.70;2.50;;;3.00;1.00;;;;;;5032460;28;20440;-53
2022/04/09 01:27:40;;;;;;;8.60;2.27;;;3.10;1.00;;;;;;5041252;28;20491;-53
2022/04/09 01:30:07;;;;;;;4.33;2.27;;;3.00;1.00;;;;;;5034464;28;20437;-54
2022/04/09 01:32:33;;;;;;;7.37;2.20;;;3.10;1.00;;;;;;5035741;28;20214;-53
2022/04/09 01:35:02;;;;;;;10.70;2.63;;;3.00;1.00;;;;;;5035897;28;20499;-53
2022/04/09 01:37:28;;;;;;;5.27;1.57;;;3.00;99.90;;;;;;5034620;28;20456;-53
2022/04/09 01:39:54;;;;;;;7.13;1.70;;;3.00;99.90;;;;;;5035551;28;20436;-49
2022/04/09 01:42:21;;;;;;;4.70;1.97;;;2.90;99.90;;;;;;5027984;28;20182;-49
2022/04/09 01:44:47;;;;;;;3.23;1.50;;;2.80;99.90;;;;;;5035212;28;20222;-54
2022/04/09 01:47:13;;;;;;;4.77;1.50;;;2.70;99.90;;;;;;5038322;28;20481;-49
2022/04/09 01:49:38;;;;;;;3.83;1.83;;;2.70;99.90;;;;;;5035460;28;20806;-48
2022/04/09 01:52:04;;;;;;;4.33;1.80;;;2.70;99.90;;;;;;5052293;28;20371;-49
2022/04/09 01:54:30;;;;;;;7.47;1.80;;;2.70;99.90;;;;;;5050880;28;20679;-49
2022/04/09 01:56:55;;;;;;;4.80;1.50;;;2.60;99.90;;;;;;5033429;28;20194;-48
2022/04/09 01:59:21;;;;;;;6.17;1.70;;;2.60;99.90;;;;;;5025775;28;20195;-49
2022/04/09 02:01:48;;;;;;;3.07;2.03;;;2.60;99.90;;;;;;5033087;28;20190;-49
2022/04/09 02:04:15;;;;;;;4.40;2.03;;;2.60;99.90;;;;;;5032571;28;20187;-49
2022/04/09 02:06:42;;;;;;;9.70;1.87;;;2.50;99.90;;;;;;5032110;28;20429;-49
2022/04/09 02:09:11;;;;;;;9.33;2.00;;;2.50;1.00;;;;;;5032580;28;20436;-49
2022/04/09 02:11:39;;;;;;;4.63;1.67;;;2.50;99.90;;;;;;5032951;28;20425;-48
2022/04/09 02:14:05;;;;;;;8.30;2.80;;;2.50;1.00;;;;;;5032566;28;20465;-48
2022/04/09 02:16:31;;;;;;;6.43;2.00;;;2.50;1.00;;;;;;5032766;28;20425;-48
2022/04/09 02:18:57;;;;;;;4.97;2.00;;;2.50;1.00;;;;;;5035476;28;20846;-48
2022/04/09 02:21:22;;;;;;;6.47;2.80;;;2.60;1.00;;;;;;5032565;28;20183;-49
2022/04/09 02:23:48;;;;;;;5.00;2.00;;;2.50;1.00;;;;;;5033085;28;20190;-48
2022/04/09 02:26:13;;;;;;;8.10;1.80;;;2.50;1.00;;;;;;5024635;28;20285;-49
2022/04/09 02:28:39;;;;;;;6.00;2.20;;;2.50;1.00;;;;;;5032895;28;20261;-49
2022/04/09 02:31:04;;;;;;;6.40;2.03;;;2.50;1.00;;;;;;5032090;28;20187;-49
2022/04/09 02:33:30;;;;;;;3.07;1.80;;;2.60;1.00;;;;;;5032397;28;20599;-52
2022/04/09 02:35:55;;;;;;;14.10;2.20;;;2.60;99.90;;;;;;5032555;28;20202;-49
2022/04/09 02:38:21;;;;;;;3.50;1.70;;;2.50;99.90;;;;;;5031426;28;20617;-49
2022/04/09 02:40:47;;;;;;;3.60;1.67;;;2.60;99.90;;;;;;5032409;28;20221;-49
2022/04/09 02:43:12;;;;;;;12.30;2.00;;;2.50;99.90;;;;;;5032494;28;20179;-49
2022/04/09 02:45:38;;;;;;;7.03;2.10;;;2.50;99.90;;;;;;5032379;28;20231;-49
2022/04/09 02:48:04;;;;;;;6.03;2.20;;;2.50;99.90;;;;;;5032375;28;20202;-49
2022/04/09 02:50:29;;;;;;;6.10;2.40;;;2.50;99.90;;;;;;5032584;28;20187;-49
2022/04/09 02:52:55;;;;;;;10.40;2.80;;;2.50;1.00;;;;;;5032329;28;20441;-48
2022/04/09 02:55:20;;;;;;;5.20;2.00;;;2.60;1.00;;;;;;5032206;28;20742;-49
2022/04/09 02:57:46;;;;;;;9.10;2.47;;;2.50;99.90;;;;;;5031690;28;20183;-49
2022/04/09 03:00:12;;;;;;;4.67;2.03;;;2.50;99.90;;;;;;5032152;28;20225;-49
2022/04/09 03:02:39;;;;;;;3.30;2.13;;;2.60;99.90;;;;;;5032025;28;20598;-49
2022/04/09 03:05:06;;;;;;;7.80;2.80;;;2.50;99.90;;;;;;5032066;28;20473;-48
2022/04/09 03:07:32;;;;;;;5.30;2.57;;;2.50;99.90;;;;;;5032154;28;20788;-49
2022/04/09 03:09:58;;;;;;;4.00;1.87;;;2.50;99.90;;;;;;5032089;28;20446;-49
2022/04/09 03:12:23;;;;;;;7.50;2.00;;;2.50;99.90;;;;;;5030880;28;20756;-48
2022/04/09 03:14:49;;;;;;;12.03;3.17;;;2.50;99.90;;;;;;5032041;28;20211;-48
2022/04/09 03:17:14;;;;;;;4.10;2.17;;;2.60;99.90;;;;;;5031794;28;20234;-49
2022/04/09 03:19:40;;;;;;;12.93;2.50;;;2.60;99.90;;;;;;5031683;28;20201;-48
2022/04/09 03:22:05;;;;;;;4.57;2.30;;;2.60;99.90;;;;;;5031947;28;20934;-48
2022/04/09 03:24:31;;;;;;;5.03;1.83;;;2.60;33.20;;;;;;5019966;28;20199;-48
2022/04/09 03:26:56;;;;;;;11.70;2.47;;;2.70;5.60;;;;;;5024144;28;20209;-48
2022/04/09 03:29:22;;;;;;;5.57;2.23;;;2.60;2.60;;;;;;5031896;28;20203;-48
2022/04/09 03:31:47;;;;;;;5.50;2.27;;;2.60;1.00;;;;;;5021459;28;20190;-48
2022/04/09 03:34:13;;;;;;;7.80;2.60;;;2.60;1.00;;;;;;5031557;28;20865;-49
2022/04/09 03:36:38;;;;;;;4.00;2.37;;;2.60;1.00;;;;;;5031141;28;20531;-48
2022/04/09 03:39:04;;;;;;;9.37;2.47;;;2.60;1.00;;;;;;5031523;28;20568;-48
2022/04/09 03:41:30;;;;;;;10.10;2.73;;;2.60;1.00;;;;;;5031437;28;20186;-48
2022/04/09 03:43:56;;;;;;;7.77;3.10;;;2.60;25.70;;;;;;5023279;28;20536;-48
2022/04/09 03:46:21;;;;;;;7.73;2.33;;;2.50;27.80;;;;;;5027459;28;20238;-48
2022/04/09 03:48:47;;;;;;;8.37;2.60;;;2.60;99.80;;;;;;5011225;28;20187;-48
2022/04/09 03:51:12;;;;;;;8.83;2.47;;;2.50;99.90;;;;;;5011820;28;20668;-48
2022/04/09 03:53:38;;;;;;;4.57;2.77;;;2.60;99.90;;;;;;5011140;28;20211;-48
2022/04/09 03:56:05;;;;;;;13.23;3.20;;;2.60;99.90;;;;;;5011535;28;20184;-48
2022/04/09 03:58:30;;;;;;;5.07;2.73;;;2.60;99.90;;;;;;4994095;28;20438;-48
2022/04/09 04:00:56;;;;;;;8.67;3.10;;;2.70;99.90;;;;;;5011268;28;20422;-50
2022/04/09 04:03:22;;;;;;;18.93;3.17;;;2.70;99.90;;;;;;4998653;28;20223;-48
2022/04/09 04:05:48;;;;;;;9.80;3.17;;;2.60;99.90;;;;;;5011052;28;20304;-49
2022/04/09 04:08:14;;;;;;;8.50;2.90;;;2.60;99.90;;;;;;4997864;28;20180;-48
2022/04/09 04:10:40;;;;;;;6.47;3.10;;;2.60;99.90;;;;;;4998976;28;20255;-48
2022/04/09 04:13:06;;;;;;;13.47;3.50;;;2.60;99.90;;;;;;5010986;28;20191;-49
2022/04/09 04:15:33;;;;;;;13.37;4.20;;;2.60;99.90;;;;;;4992953;28;20557;-49
2022/04/09 04:17:58;;;;;;;6.47;3.60;;;2.50;99.90;;;;;;5011008;28;20429;-49
2022/04/09 04:20:24;;;;;;;10.70;4.40;;;2.50;99.90;;;;;;5025886;28;20422;-48
2022/04/09 04:22:51;;;;;;;6.90;3.20;;;2.60;99.90;;;;;;5023205;28;20771;-48
2022/04/09 04:25:17;;;;;;;10.50;4.13;;;2.50;1.00;;;;;;5011136;28;20176;-55
2022/04/09 04:27:44;;;;;;;17.77;5.33;;;2.50;1.00;;;;;;5003896;28;20457;-48
2022/04/09 04:30:10;;;;;;;16.97;3.87;;;2.60;1.00;;;;;;5011129;28;20172;-48
2022/04/09 04:32:36;;;;;;;16.90;3.97;;;2.50;1.00;;;;;;5010895;28;20450;-48
2022/04/09 04:35:02;;;;;;;8.80;3.93;;;2.50;1.00;;;;;;5010885;28;20493;-49
2022/04/09 04:37:40;;;;;;;10.30;3.90;;;2.60;1.00;;;;;;5026261;28;20449;-49
2022/04/09 04:40:07;;;;;;;14.47;4.40;;;2.50;1.00;;;;;;5031697;28;20470;-49
2022/04/09 04:42:33;;;;;;;15.43;4.20;;;2.50;1.00;;;;;;5030972;28;20396;-48
2022/04/09 04:44:59;;;;;;;12.03;3.83;;;2.50;1.00;;;;;;5031091;28;21054;-48
2022/04/09 04:47:24;;;;;;;11.07;4.27;;;2.50;1.00;;;;;;5030484;28;20241;-49
2022/04/09 04:49:50;;;;;;;10.07;4.03;;;2.50;1.00;;;;;;5030780;28;20175;-49
2022/04/09 04:52:15;;;;;;;8.87;4.43;;;2.50;1.00;;;;;;5030381;28;20183;-49
2022/04/09 04:54:41;;;;;;;16.37;4.47;;;2.60;1.00;;;;;;5014867;28;20206;-49
2022/04/09 04:57:07;;;;;;;12.43;4.50;;;2.60;99.90;;;;;;5010454;28;20238;-49
2022/04/09 04:59:32;;;;;;;5.60;3.83;;;2.60;99.90;;;;;;5010157;28;20221;-49
2022/04/09 05:01:58;;;;;;;13.63;4.37;;;2.70;99.90;;;;;;5010315;28;20180;-49
2022/04/09 05:04:25;;;;;;;9.60;4.00;;;2.70;99.90;;;;;;5010136;28;20187;-49
2022/04/09 05:06:51;;;;;;;7.87;3.73;;;2.60;99.90;;;;;;5010043;28;20258;-48
2022/04/09 05:09:17;;;;;;;10.33;4.23;;;2.70;99.90;;;;;;5010450;28;20462;-48
2022/04/09 05:11:43;;;;;;;11.80;3.93;;;2.80;99.90;;;;;;5010657;28;20438;-48
2022/04/09 05:14:08;;;;;;;10.23;4.60;;;2.70;99.90;;;;;;5010250;28;20458;-48
2022/04/09 05:16:34;;;;;;;7.33;3.53;;;2.70;99.90;;;;;;5010168;28;20266;-48
2022/04/09 05:18:59;;;;;;;15.50;5.13;;;2.80;99.90;;;;;;5010085;28;20179;-48
2022/04/09 05:21:26;;;;;;;7.30;3.93;;;2.90;99.90;;;;;;4992583;28;20658;-48
2022/04/09 05:23:51;;;;;;;14.87;4.13;;;3.00;99.90;;;;;;4992618;28;20187;-48
2022/04/09 05:26:17;;;;;;;9.80;3.40;;;3.00;99.90;;;;;;5010445;28;20480;-48
2022/04/09 05:28:42;;;;;;;8.10;4.03;;;3.10;99.90;;;;;;5017676;28;20184;-48
2022/04/09 05:31:11;;;;;;;8.93;3.07;;;3.10;99.90;;;;;;5009450;28;20191;-48
2022/04/09 05:33:40;;;;;;;7.60;3.20;;;3.10;99.90;;;;;;5009804;28;20199;-48
2022/04/09 05:36:06;;;;;;;11.13;3.73;;;3.20;99.90;;;;;;5010537;28;20454;-48
2022/04/09 05:38:32;;;;;;;15.37;3.63;;;3.30;99.90;;;;;;5010383;28;20442;-48
2022/04/09 05:40:58;;;;;;;14.50;3.60;;;3.30;85.50;;;;;;5010236;28;20168;-48
2022/04/09 05:43:24;;;;;;;13.83;3.70;;;3.40;85.50;;;;;;5009932;28;20443;-49
2022/04/09 05:45:50;;;;;;;11.37;3.40;;;3.50;64.10;;;;;;4999289;28;20239;-47
2022/04/09 05:48:15;;;;;;;11.37;3.43;;;3.50;67.30;;;;;;5010177;28;20484;-48
2022/04/09 05:50:41;;;;;;;9.00;3.93;;;3.50;74.40;;;;;;5010085;28;20828;-49
2022/04/09 05:53:06;;;;;;;6.33;3.10;;;3.50;78.90;;;;;;5024710;28;20183;-48
2022/04/09 05:55:32;;;;;;;8.50;3.50;;;3.50;55.70;;;;;;5029883;28;20234;-48
2022/04/09 05:57:59;;;;;;;12.73;3.80;;;3.60;23.90;;;;;;5028580;28;20230;-49
2022/04/09 06:00:27;;;;;;;8.60;2.97;;;3.60;10.70;;;;;;5029889;28;20159;-49
2022/04/09 06:02:53;;;;;;;8.53;3.80;;;3.70;2.30;;;;;;5011468;28;20422;-48
2022/04/09 06:05:18;;;;;;;8.93;2.90;;;3.70;1.00;;;;;;5013841;28;20441;-48
2022/04/09 06:07:44;;;;;;;10.30;4.10;;;3.70;1.00;;;;;;5032958;28;20218;-48
2022/04/09 06:10:12;;;;;;;15.10;3.87;;;3.80;1.00;;;;;;5033296;28;20183;-48
2022/04/09 06:12:38;;;;;;;13.97;4.43;;;3.90;1.00;;;;;;5033294;28;20178;-52
2022/04/09 06:15:04;;;;;;;12.00;3.53;;;3.90;1.00;;;;;;5033398;28;20496;-52
2022/04/09 06:17:29;;;;;;;10.40;3.50;;;4.00;1.00;;;;;;5032420;28;20179;-53
2022/04/09 06:19:55;;;;;;;6.97;3.57;;;4.00;1.00;;;;;;5032224;28;20445;-53
2022/04/09 06:22:21;;;;;;;19.70;3.57;;;4.00;1.00;;;;;;5032811;28;20276;-52
2022/04/09 06:24:47;;;;;;;9.87;2.70;;;4.00;1.00;;;;;;5015043;28;20192;-51
2022/04/09 06:27:14;;;;;;;10.30;2.43;;;3.90;1.00;;;;;;5015037;28;20198;-53
2022/04/09 06:29:40;;;;;;;8.80;3.17;;;3.90;1.00;;;;;;4998881;28;20445;-52
2022/04/09 06:32:06;;;;;;;11.37;3.00;;;4.00;1.00;;;;;;5033304;28;20830;-52
2022/04/09 06:34:31;;;;;;;12.10;3.47;;;4.20;1.00;;;;;;5031909;28;20202;-52
2022/04/09 06:36:57;;;;;;;5.40;2.73;;;4.50;1.00;;;;;;5032358;28;20443;-52
2022/04/09 06:39:23;;;;;;;7.07;3.10;;;4.80;1.00;;;;;;5032867;28;20229;-52
2022/04/09 06:41:49;;;;;;;13.70;3.30;;;5.00;1.00;;;;;;5032261;28;20634;-52
2022/04/09 06:44:16;;;;;;;11.57;3.20;;;5.10;1.00;;;;;;5032762;28;20536;-52
2022/04/09 06:46:43;;;;;;;10.57;3.00;;;5.10;1.00;;;;;;5031164;28;20478;-51
2022/04/09 06:49:11;;;;;;;5.43;3.03;;;5.30;1.00;;;;;;5032545;28;20503;-51
2022/04/09 06:51:38;;;;;;;8.10;3.13;;;5.40;1.00;;;;;;5031214;28;20994;-51
2022/04/09 06:54:03;;;;;;;6.50;2.73;;;5.40;1.00;;;;;;5026000;28;20469;-52
2022/04/09 06:56:29;;;;;;;9.17;3.80;;;5.30;1.00;;;;;;5027121;28;20432;-51
2022/04/09 06:58:54;;;;;;;8.40;2.70;;;5.20;1.00;;;;;;5030350;28;20206;-53
2022/04/09 07:01:20;;;;;;;16.10;3.57;;;5.20;1.00;;;;;;5018591;28;20242;-52
2022/04/09 07:03:45;;;;;;;8.00;2.60;;;5.30;1.00;;;;;;5023651;28;20218;-51
2022/04/09 07:06:11;;;;;;;13.07;2.90;;;5.40;1.00;;;;;;5031730;28;20191;-52
2022/04/09 07:08:37;;;;;;;10.33;2.90;;;5.50;1.00;;;;;;5032357;28;20194;-51
2022/04/09 07:11:03;;;;;;;7.73;2.67;;;5.50;1.00;;;;;;5032492;28;20412;-52
2022/04/09 07:13:29;;;;;;;14.43;4.20;;;5.50;1.00;;;;;;5032001;28;20608;-51
2022/04/09 07:15:55;;;;;;;9.50;2.80;;;5.50;1.00;;;;;;5026791;28;20576;-52
2022/04/09 07:18:20;;;;;;;16.53;3.00;;;5.40;1.00;;;;;;5039358;28;20178;-52
2022/04/09 07:20:46;;;;;;;11.93;3.30;;;5.20;1.00;;;;;;5031882;28;21309;-52
2022/04/09 07:23:11;;;;;;;7.13;2.60;;;5.00;1.00;;;;;;5031755;28;20225;-53
2022/04/09 07:25:37;;;;;;;5.83;2.73;;;4.90;1.00;;;;;;5031701;28;20183;-53
2022/04/09 07:28:03;;;;;;;9.70;2.93;;;4.90;1.00;;;;;;5031259;28;20194;-52
2022/04/09 07:30:28;;;;;;;14.33;2.90;;;4.70;1.00;;;;;;5013679;28;20187;-52
2022/04/09 07:32:58;;;;;;;5.37;2.80;;;4.60;1.00;;;;;;5014114;28;20233;-53
2022/04/09 07:35:25;;;;;;;5.87;2.50;;;4.40;71.80;;;;;;5024225;28;20570;-59
2022/04/09 07:37:53;;;;;;;6.40;2.30;;;4.40;99.90;;;;;;5031439;28;20514;-53
2022/04/09 07:40:20;;;;;;;10.60;2.40;;;4.30;99.90;;;;;;5031426;28;20495;-58
2022/04/09 07:42:47;;;;;;;4.47;2.60;;;4.50;99.90;;;;;;5031580;28;20414;-53
2022/04/09 07:45:14;;;;;;;5.40;2.40;;;4.70;99.90;;;;;;5031332;28;20449;-53
2022/04/09 07:47:41;;;;;;;6.40;2.60;;;5.10;99.90;;;;;;5027203;28;20755;-54
2022/04/09 07:50:10;;;;;;;8.07;2.80;;;5.60;83.30;;;;;;5031555;28;20409;-53
2022/04/09 07:52:37;;;;;;;12.43;3.20;;;5.90;1.00;;;;;;5013693;28;20442;-53
2022/04/09 07:55:03;;;;;;;6.40;2.80;;;6.20;1.00;;;;;;5031684;28;21288;-52
2022/04/09 07:57:29;;;;;;;5.90;2.43;;;6.50;1.00;;;;;;5036849;28;20448;-53
2022/04/09 07:59:58;;;;;;;7.90;2.50;;;6.70;1.00;;;;;;5031732;28;20580;-52
2022/04/09 08:02:24;;;;;;;5.70;2.30;;;7.20;1.00;;;;;;5031041;28;20533;-52
2022/04/09 08:04:50;;;;;;;8.93;3.70;;;7.30;1.00;;;;;;5027424;28;20446;-53
2022/04/09 08:07:15;;;;;;;8.63;2.57;;;7.40;1.00;;;;;;5017462;28;20496;-51
2022/04/09 08:09:43;;;;;;;12.33;2.80;;;7.60;1.00;;;;;;5028882;28;20182;-51
2022/04/09 08:12:11;;;;;;;7.47;2.40;;;7.50;1.00;;;;;;5029896;28;20167;-52
2022/04/09 08:14:37;;;;;;;6.93;2.20;;;7.90;1.00;;;;;;5029750;28;20496;-51
2022/04/09 08:17:03;;;;;;;6.07;2.10;;;8.50;1.00;;;;;;5010962;28;20461;-51
2022/04/09 08:19:29;;;;;;;5.30;1.97;;;9.00;99.90;;;;;;5028333;28;20178;-50
2022/04/09 08:21:56;;;;;;;4.00;2.20;;;9.50;99.90;;;;;;5028650;28;20183;-49
2022/04/09 08:24:21;;;;;;;4.67;1.80;;;9.70;99.90;;;;;;5029907;28;20433;-51
2022/04/09 08:26:47;;;;;;;5.20;1.80;;;9.20;99.90;;;;;;5011718;28;20424;-51
2022/04/09 08:29:18;;;;;;;7.67;2.00;;;8.50;99.90;;;;;;5027799;28;20282;-50
2022/04/09 08:31:47;;;;;;;6.67;1.73;;;7.80;99.90;;;;;;5028723;28;20168;-50
2022/04/09 08:34:12;;;;;;;5.47;2.03;;;7.30;99.90;;;;;;5028544;28;20465;-51
2022/04/09 08:36:38;;;;;;;4.77;1.67;;;7.20;1.00;;;;;;5029351;28;20830;-50
2022/04/09 08:39:03;;;;;;;4.50;1.80;;;7.30;1.00;;;;;;5010608;28;20233;-52
2022/04/09 08:41:29;;;;;;;10.10;1.63;;;7.00;1.00;;;;;;5028878;28;20198;-51
2022/04/09 08:43:54;;;;;;;3.57;1.33;;;6.70;1.00;;;;;;5028166;28;20179;-51
2022/04/09 08:46:22;;;;;;;2.93;1.40;;;6.80;1.00;;;;;;5027667;28;20239;-49
2022/04/09 08:48:50;;;;;;;3.03;1.30;;;7.40;1.00;;;;;;5028662;28;20286;-49
2022/04/09 08:51:15;;;;;;;5.50;1.40;;;8.10;99.90;;;;;;5028838;28;20774;-49
2022/04/09 08:53:43;;;;;;;4.77;1.40;;;8.40;99.90;;;;;;5029173;28;20476;-50
2022/04/09 08:56:11;;;;;;;4.87;1.83;;;8.80;99.90;;;;;;5024976;28;20186;-48
2022/04/09 08:58:36;;;;;;;1.73;1.30;;;8.80;99.90;;;;;;5027516;28;20437;-49
2022/04/09 09:01:02;;;;;;;4.73;1.93;;;9.00;99.90;;;;;;5027914;28;21053;-48
2022/04/09 09:03:27;;;;;;;4.93;1.30;;;9.00;99.90;;;;;;5010292;28;20187;-49
2022/04/09 09:05:53;;;;;;;2.83;1.30;;;8.50;99.90;;;;;;5031525;28;20186;-50
2022/04/09 09:08:39;;;;;;;2.90;1.33;;;8.60;99.90;;;;;;5029924;28;20531;-48
2022/04/09 09:11:05;;;;;;;4.77;1.90;;;9.10;99.90;;;;;;5028831;28;20228;-49
2022/04/09 09:13:47;;;;;;;7.50;1.63;;;9.30;99.90;;;;;;5028705;28;20430;-49
2022/04/09 09:16:23;;;;;;;8.60;2.07;;;9.10;99.90;;;;;;5028790;28;20190;-48
2022/04/09 09:18:51;;;;;;;7.23;1.73;;;8.60;99.90;;;;;;5028846;28;20425;-48
2022/04/09 09:21:19;;;;;;;8.73;1.63;;;8.20;99.90;;;;;;5028853;28;20468;-50
2022/04/09 09:23:45;;;;;;;6.83;1.80;;;7.80;99.90;;;;;;5029089;28;20424;-50
2022/04/09 09:26:23;;;;;;;9.67;1.93;;;7.40;1.00;;;;;;5028706;28;20520;-50
2022/04/09 09:28:56;;;;;;;6.00;1.57;;;7.30;1.00;;;;;;5028854;28;20732;-50
2022/04/09 09:31:43;;;;;;;3.30;1.10;;;8.00;1.00;;;;;;5028762;28;20444;-49
2022/04/09 09:34:16;;;;;;;7.50;1.40;;;8.60;99.90;;;;;;5025338;28;20465;-51
2022/04/09 09:36:43;;;;;;;4.93;1.30;;;8.80;99.90;;;;;;5029852;28;20842;-52
2022/04/09 09:39:10;;;;;;;4.20;1.47;;;9.20;99.90;;;;;;5030498;28;20417;-51
2022/04/09 09:41:50;;;;;;;3.83;1.40;;;9.50;99.90;;;;;;5033961;28;20917;-52
2022/04/09 09:44:17;;;;;;;3.93;1.40;;;9.50;99.90;;;;;;5032757;28;20441;-51
2022/04/09 09:46:44;;;;;;;6.33;1.30;;;9.50;99.90;;;;;;5033218;28;20484;-50
2022/04/09 09:49:10;;;;;;;7.20;1.93;;;9.60;99.90;;;;;;5032295;28;20432;-50
2022/04/09 09:51:35;;;;;;;3.50;1.00;;;9.70;99.90;;;;;;5033729;28;20534;-49
2022/04/09 09:54:13;;;;;;;4.30;1.23;;;9.50;99.90;;;;;;5032369;28;20207;-50
2022/04/09 09:56:42;;;;;;;4.63;1.10;;;9.50;99.90;;;;;;5030577;28;20179;-51
2022/04/09 09:59:10;;;;;;;3.20;0.90;;;9.60;99.90;;;;;;5029581;28;20418;-50
2022/04/09 10:01:39;;;;;;;2.40;0.93;;;9.70;99.90;;;;;;5047842;28;20583;-50
2022/04/09 10:04:07;;;;;;;5.10;1.23;;;9.50;99.90;;;;;;5021081;28;20857;-49
2022/04/09 10:06:34;;;;;;;4.60;1.47;;;9.20;99.90;;;;;;5031739;28;20436;-50
2022/04/09 10:09:01;;;;;;;6.90;1.23;;;9.10;99.90;;;;;;5031942;28;20511;-51
2022/04/09 10:11:28;;;;;;;4.20;1.30;;;9.10;99.90;;;;;;5031823;28;20993;-50
2022/04/09 10:13:57;;;;;;;3.53;1.40;;;9.40;99.90;;;;;;5032054;28;20457;-50
2022/04/09 10:16:23;;;;;;;6.10;1.30;;;9.20;99.90;;;;;;5032567;28;20417;-50
2022/04/09 10:18:49;;;;;;;4.23;1.33;;;8.90;99.90;;;;;;5031866;28;20421;-50
2022/04/09 10:21:17;;;;;;;4.70;1.20;;;9.00;99.90;;;;;;5032465;28;20447;-48
2022/04/09 10:23:44;;;;;;;3.37;1.20;;;9.30;99.90;;;;;;5031898;28;20788;-49
2022/04/09 10:26:11;;;;;;;7.27;1.50;;;9.40;99.90;;;;;;5032120;28;20444;-51
2022/04/09 10:28:40;;;;;;;4.40;1.20;;;9.60;99.90;;;;;;5032389;28;20433;-48
2022/04/09 10:31:23;;;;;;;2.50;1.13;;;9.90;99.90;;;;;;5033202;28;20921;-47
2022/04/09 10:33:56;;;;;;;4.70;1.57;;;9.90;99.90;;;;;;5032022;28;20472;-48
2022/04/09 10:36:40;;;;;;;9.60;1.40;;;10.30;99.90;;;;;;5032016;28;20429;-47
2022/04/09 10:39:40;;;;;;;3.93;1.30;;;10.70;99.90;;;;;;5029599;28;20491;-47
2022/04/09 10:42:10;;;;;;;9.23;1.73;;;10.80;99.90;;;;;;5028191;28;20434;-48
2022/04/09 10:44:48;;;;;;;9.77;2.03;;;10.80;99.90;;;;;;5026039;28;20457;-47
2022/04/09 10:47:15;;;;;;;6.27;1.70;;;10.40;99.90;;;;;;5031635;28;21005;-49
2022/04/09 10:50:02;;;;;;;8.20;1.53;;;9.80;99.90;;;;;;5031764;28;20429;-48
2022/04/09 10:52:30;;;;;;;1.83;1.00;;;9.00;99.90;;;;;;5028278;28;20520;-48
2022/04/09 10:55:15;;;;;;;6.43;1.00;;;7.90;99.90;;;;;;5013884;28;20462;-49
2022/04/09 10:57:45;;;;;;;3.53;0.90;;;7.00;1.00;;;;;;5031277;28;20421;-50
2022/04/09 11:00:23;;;;;;;5.47;1.20;;;7.10;1.00;;;;;;5031548;28;20417;-46
2022/04/09 11:03:10;;;;;;;3.80;1.30;;;8.20;1.00;;;;;;5030652;28;20440;-47
2022/04/09 11:05:39;;;;;;;6.30;1.30;;;8.90;99.90;;;;;;5032505;28;20892;-48
2022/04/09 11:08:14;;;;;;;5.00;1.73;;;9.80;99.90;;;;;;5031058;28;20430;-49
2022/04/09 11:10:41;;;;;;;7.63;1.00;;;10.40;99.90;;;;;;5030682;28;20430;-49
2022/04/09 11:13:10;;;;;;;6.97;1.40;;;10.80;99.90;;;;;;5030598;28;20524;-49
2022/04/09 11:15:37;;;;;;;7.37;1.43;;;11.40;99.90;;;;;;5031370;28;20458;-49
2022/04/09 11:18:03;;;;;;;6.30;1.23;;;10.90;99.90;;;;;;5031118;28;20441;-49
2022/04/09 11:20:34;;;;;;;8.90;1.53;;;10.70;99.90;;;;;;5028406;28;20430;-49
2022/04/09 11:23:12;;;;;;;5.10;1.43;;;11.10;99.90;;;;;;5031184;28;20187;-46
2022/04/09 11:25:41;;;;;;;8.97;1.37;;;11.50;99.90;;;;;;5025700;28;20516;-46
2022/04/09 11:28:13;;;;;;;4.57;1.07;;;11.70;99.90;;;;;;5033787;28;20802;-46
2022/04/09 11:30:50;;;;;;;7.43;1.67;;;12.10;99.90;;;;;;5031686;28;20460;-46
2022/04/09 11:33:16;;;;;;;4.70;1.47;;;12.00;99.90;;;;;;5027979;28;20432;-46
2022/04/09 11:35:41;;;;;;;3.13;1.07;;;11.90;99.90;;;;;;5030624;28;20473;-46
2022/04/09 11:38:10;;;;;;;4.27;1.70;;;12.50;99.90;;;;;;5028464;28;20768;-48
2022/04/09 11:40:38;;;;;;;3.90;1.50;;;12.70;99.90;;;;;;5031138;28;20274;-48
2022/04/09 11:43:04;;;;;;;4.73;1.43;;;12.50;99.90;;;;;;5028728;28;20444;-48
2022/04/09 11:45:31;;;;;;;10.50;1.90;;;12.40;99.90;;;;;;5021731;28;20559;-48
2022/04/09 11:48:01;;;;;;;6.27;1.63;;;12.20;99.90;;;;;;5039367;28;20186;-48
2022/04/09 11:50:37;;;;;;;8.13;2.10;;;11.40;99.90;;;;;;5035690;28;20423;-51
2022/04/09 11:53:14;;;;;;;10.57;1.80;;;10.80;99.90;;;;;;5029368;28;20421;-51
2022/04/09 11:55:42;;;;;;;9.07;1.53;;;10.10;99.90;;;;;;5029760;28;20793;-51
2022/04/09 11:58:08;;;;;;;10.53;2.33;;;9.90;99.90;;;;;;5030492;28;20430;-51
2022/04/09 12:00:41;;;;;;;8.30;1.97;;;10.00;99.90;;;;;;5026637;28;21445;-51
2022/04/09 12:03:07;;;;;;;9.13;1.60;;;10.30;99.90;;;;;;5028746;28;20422;-51
2022/04/09 12:05:47;;;;;;;11.10;2.10;;;10.70;99.90;;;;;;5030305;28;21304;-50
2022/04/09 12:08:23;;;;;;;10.37;1.70;;;10.80;99.90;;;;;;5027475;28;20179;-51
2022/04/09 12:10:53;;;;;;;6.50;2.00;;;10.60;99.90;;;;;;5026431;28;20465;-51
2022/04/09 12:13:39;;;;;;;10.47;2.10;;;10.70;99.90;;;;;;5030219;28;20444;-51
2022/04/09 12:16:11;;;;;;;15.47;2.03;;;10.40;99.90;;;;;;5028720;28;20429;-50
2022/04/09 12:18:37;;;;;;;7.77;2.10;;;10.30;99.90;;;;;;5030105;28;20807;-51
2022/04/09 12:21:22;;;;;;;9.17;1.70;;;10.80;99.90;;;;;;5030123;28;20436;-51
2022/04/09 12:24:00;;;;;;;10.53;2.47;;;11.60;99.90;;;;;;5027103;28;20512;-51
2022/04/09 12:26:26;;;;;;;11.80;2.60;;;12.50;99.90;;;;;;5026674;28;20432;-51
2022/04/09 12:29:20;;;;;;;14.30;2.20;;;12.60;99.90;;;;;;5029695;28;20472;-51
2022/04/09 12:31:48;;;;;;;8.43;2.30;;;12.30;99.90;;;;;;5026651;28;20414;-51
2022/04/09 12:34:14;;;;;;;11.80;2.40;;;12.30;99.90;;;;;;5029051;28;20840;-55
2022/04/09 12:37:04;;;;;;;13.60;2.63;;;12.40;99.90;;;;;;5029668;28;20505;-51
2022/04/09 12:39:33;;;;;;;13.50;2.47;;;12.40;99.90;;;;;;5028401;28;20449;-50
2022/04/09 12:41:59;;;;;;;10.73;2.67;;;11.90;99.90;;;;;;5029842;28;20429;-51
2022/04/09 12:44:30;;;;;;;12.80;2.60;;;11.40;99.90;;;;;;5029399;28;20541;-51
2022/04/09 12:46:56;;;;;;;13.93;2.40;;;11.80;99.90;;;;;;5029531;28;20509;-50
2022/04/09 12:49:28;;;;;;;9.80;2.50;;;11.60;99.90;;;;;;5025637;28;21132;-51
2022/04/09 12:51:54;;;;;;;12.40;3.03;;;12.30;99.90;;;;;;5029242;28;20429;-51
2022/04/09 12:54:21;;;;;;;13.13;2.60;;;13.10;99.90;;;;;;5028395;28;20481;-51
2022/04/09 12:56:46;;;;;;;7.80;2.10;;;13.00;99.90;;;;;;5029419;28;21148;-51
2022/04/09 12:59:12;;;;;;;8.27;2.07;;;13.20;99.90;;;;;;5011550;28;20421;-51
2022/04/09 13:01:37;;;;;;;12.33;2.50;;;13.00;99.90;;;;;;5011652;28;20179;-51